Time;durP1;ratioP1;P1;durP2;ratioP2;P2;SDS_P1;SDS_P2;PMS_P1;PMS_P2;Temp;Humidity;BMP_temperature;BMP_pressure;BME280_temperature;BME280_humidity;BME280_pressure;Samples;Min_cycle;Max_cycle;Signal;HPM_P1;HPM_P2
2022/03/19 00:02:12;;;;;;;;;;;;;;;6.83;75.93;104386.53;5100386;28;19935;-76
2022/03/19 00:04:37;;;;;;;;;;;;;;;6.82;75.42;104393.28;5102907;28;19920;-74
2022/03/19 00:07:02;;;;;;;;;;;;;;;6.80;75.24;104384.56;5102008;28;19920;-76
2022/03/19 00:09:27;;;;;;;;;;;;;;;6.76;75.81;104392.69;5102799;28;19927;-76
2022/03/19 00:11:54;;;;;;;;;;;;;;;6.76;76.06;104387.56;5104926;28;19922;-75
2022/03/19 00:14:19;;;;;;;;;;;;;;;6.70;76.32;104392.06;5101711;28;19977;-75
2022/03/19 00:16:45;;;;;;;;;;;;;;;6.67;76.10;104390.13;5105913;28;19919;-76
2022/03/19 00:19:10;;;;;;;;;;;;;;;6.63;76.84;104389.66;5107226;28;19920;-77
2022/03/19 00:21:37;;;;;;;;;;;;;;;6.61;76.66;104391.13;5106644;28;19994;-76
2022/03/19 00:24:04;;;;;;;;;;;;;;;6.59;77.10;104385.88;5108174;28;19916;-76
2022/03/19 00:26:30;;;;;;;;;;;;;;;6.54;76.52;104389.63;5104724;28;19940;-76
2022/03/19 00:28:55;;;;;;;;;;;;;;;6.45;77.22;104384.50;5102655;28;19939;-76
2022/03/19 00:31:20;;;;;;;;;;;;;;;6.41;77.72;104384.91;5103879;28;19931;-75
2022/03/19 00:33:46;;;;;;;;;;;;;;;6.42;78.04;104383.28;5106324;28;19942;-75
2022/03/19 00:36:11;;;;;;;;;;;;;;;6.40;78.28;104379.66;5102424;28;19920;-76
2022/03/19 00:38:36;;;;;;;;;;;;;;;6.37;77.73;104384.44;5105714;28;20226;-76
2022/03/19 00:41:03;;;;;;;;;;;;;;;6.30;78.63;104387.13;5103363;28;19920;-77
2022/03/19 00:43:28;;;;;;;;;;;;;;;6.29;78.03;104382.78;5105558;27;19967;-77
2022/03/19 00:45:54;;;;;;;;;;;;;;;6.24;79.15;104389.97;5102828;28;20016;-76
2022/03/19 00:48:19;;;;;;;;;;;;;;;6.22;79.35;104388.03;5105943;28;20366;-77
2022/03/19 00:50:45;;;;;;;;;;;;;;;6.18;79.17;104381.69;5103588;28;20598;-77
2022/03/19 00:53:10;;;;;;;;;;;;;;;6.16;79.44;104384.09;5105304;28;19923;-77
2022/03/19 00:55:35;;;;;;;;;;;;;;;6.15;80.05;104381.38;5103262;28;19924;-77
2022/03/19 00:58:01;;;;;;;;;;;;;;;6.10;79.86;104380.91;5102429;28;19924;-77
2022/03/19 01:00:26;;;;;;;;;;;;;;;6.07;80.22;104379.72;5106787;28;19915;-76
2022/03/19 01:02:53;;;;;;;;;;;;;;;6.07;80.39;104387.38;5108316;28;19923;-77
2022/03/19 01:05:18;;;;;;;;;;;;;;;6.03;81.15;104382.69;5103848;28;19959;-77
2022/03/19 01:07:44;;;;;;;;;;;;;;;6.01;80.83;104381.63;5103115;28;19970;-77
2022/03/19 01:10:12;;;;;;;;;;;;;;;5.99;81.68;104381.47;5105896;28;19916;-77
2022/03/19 01:12:37;;;;;;;;;;;;;;;5.97;81.31;104376.94;5108839;28;20173;-77
2022/03/19 01:15:02;;;;;;;;;;;;;;;5.93;82.75;104377.38;5105168;28;19999;-77
2022/03/19 01:17:27;;;;;;;;;;;;;;;5.91;82.77;104383.22;5114749;28;19927;-76
2022/03/19 01:19:53;;;;;;;;;;;;;;;5.90;82.75;104383.94;5126193;28;19939;-79
2022/03/19 01:22:19;;;;;;;;;;;;;;;5.89;82.75;104381.25;5125580;28;19926;-77
2022/03/19 01:24:44;;;;;;;;;;;;;;;5.87;82.55;104381.06;5108679;28;20320;-77
2022/03/19 01:27:09;;;;;;;;;;;;;;;5.87;83.15;104380.16;5105223;28;20011;-78
2022/03/19 01:29:35;;;;;;;;;;;;;;;5.86;84.05;104378.34;5106668;28;19919;-77
2022/03/19 01:32:00;;;;;;;;;;;;;;;5.81;84.56;104376.97;5105283;28;19932;-76
2022/03/19 01:34:25;;;;;;;;;;;;;;;5.79;83.81;104375.94;5106335;28;19924;-76
2022/03/19 01:36:52;;;;;;;;;;;;;;;5.78;84.13;104372.47;5104222;28;19928;-76
2022/03/19 01:39:17;;;;;;;;;;;;;;;5.76;85.19;104375.59;5106606;28;19959;-75
2022/03/19 01:41:44;;;;;;;;;;;;;;;5.72;85.06;104376.03;5103699;28;20363;-76
2022/03/19 01:44:16;;;;;;;;;;;;;;;5.71;85.43;104375.13;5104908;28;20376;-76
2022/03/19 01:46:57;;;;;;;;;;;;;;;5.68;86.11;104362.03;5104020;28;20022;-76
2022/03/19 01:49:23;;;;;;;;;;;;;;;5.66;85.99;104373.75;5100290;28;19919;-75
2022/03/19 01:51:48;;;;;;;;;;;;;;;5.62;85.89;104367.41;5105202;28;20271;-76
2022/03/19 01:54:14;;;;;;;;;;;;;;;5.62;85.98;104369.06;5107900;28;19927;-76
2022/03/19 01:56:40;;;;;;;;;;;;;;;5.58;87.39;104361.81;5104997;28;19920;-76
2022/03/19 01:59:06;;;;;;;;;;;;;;;5.52;88.09;104362.13;5102478;28;20370;-75
2022/03/19 02:01:32;;;;;;;;;;;;;;;5.50;87.97;104362.69;5104402;28;19934;-76
2022/03/19 02:03:58;;;;;;;;;;;;;;;5.52;88.65;104350.97;5107220;27;19926;-76
2022/03/19 02:06:25;;;;;;;;;;;;;;;5.52;88.42;104362.13;5103526;28;20392;-76
2022/03/19 02:08:51;;;;;;;;;;;;;;;5.50;88.37;104360.13;5102591;28;20208;-76
2022/03/19 02:11:16;;;;;;;;;;;;;;;5.45;89.36;104361.28;5107697;28;20275;-77
2022/03/19 02:13:41;;;;;;;;;;;;;;;5.45;89.54;104356.19;5105040;28;19944;-77
2022/03/19 02:16:07;;;;;;;;;;;;;;;5.45;89.13;104356.19;5107808;28;19966;-77
2022/03/19 02:18:33;;;;;;;;;;;;;;;5.40;89.99;104345.53;5102993;28;20355;-76
2022/03/19 02:20:58;;;;;;;;;;;;;;;5.34;89.96;104343.22;5104983;28;19920;-77
2022/03/19 02:26:07;;;;;;;;;;;;;;;5.30;89.24;104340.19;5104195;28;20289;-77
2022/03/19 02:28:33;;;;;;;;;;;;;;;5.22;91.16;104334.28;5105938;28;19920;-77
2022/03/19 02:30:58;;;;;;;;;;;;;;;5.20;91.30;104329.75;5104949;28;19938;-77
2022/03/19 02:33:23;;;;;;;;;;;;;;;5.15;91.87;104328.34;5103825;28;19961;-77
2022/03/19 02:35:49;;;;;;;;;;;;;;;5.13;92.22;104327.31;5106435;28;19920;-77
2022/03/19 02:38:14;;;;;;;;;;;;;;;5.09;91.79;104326.97;5105356;28;19928;-77
2022/03/19 02:40:39;;;;;;;;;;;;;;;5.07;92.37;104325.00;5102037;28;19921;-77
2022/03/19 02:43:05;;;;;;;;;;;;;;;5.03;91.58;104322.88;5102716;28;20462;-77
2022/03/19 02:45:30;;;;;;;;;;;;;;;4.97;92.28;104314.56;5102841;28;19941;-77
2022/03/19 02:47:58;;;;;;;;;;;;;;;4.94;91.66;104319.34;5103403;28;19919;-77
2022/03/19 02:50:25;;;;;;;;;;;;;;;4.93;93.16;104320.09;5105996;28;22033;-78
2022/03/19 02:52:50;;;;;;;;;;;;;;;4.90;93.96;104324.88;5105406;28;19927;-77
2022/03/19 02:55:15;;;;;;;;;;;;;;;4.87;93.35;104322.00;5104093;28;19950;-76
2022/03/19 02:57:41;;;;;;;;;;;;;;;4.84;94.56;104318.38;5110184;27;20010;-77
2022/03/19 03:00:08;;;;;;;;;;;;;;;4.83;93.42;104328.41;5103914;28;19946;-76
2022/03/19 03:02:34;;;;;;;;;;;;;;;4.77;93.99;104325.22;5103319;28;20382;-77
2022/03/19 03:04:59;;;;;;;;;;;;;;;4.70;94.18;104326.19;5105472;28;19954;-77
2022/03/19 03:07:24;;;;;;;;;;;;;;;4.64;94.94;104320.44;5101273;27;20402;-77
2022/03/19 03:09:49;;;;;;;;;;;;;;;4.63;94.83;104317.75;5104151;28;19916;-77
2022/03/19 03:12:15;;;;;;;;;;;;;;;4.61;96.95;104311.56;5103851;28;19951;-77
2022/03/19 03:14:40;;;;;;;;;;;;;;;4.61;95.29;104304.84;5100253;28;19927;-76
2022/03/19 03:17:05;;;;;;;;;;;;;;;4.59;97.34;104306.28;5107024;28;19920;-76
2022/03/19 03:19:32;;;;;;;;;;;;;;;4.59;97.55;104308.84;5107636;27;19928;-76
2022/03/19 03:21:57;;;;;;;;;;;;;;;4.61;96.78;104303.91;5102013;28;19963;-76
2022/03/19 03:24:23;;;;;;;;;;;;;;;4.58;97.75;104313.03;5105682;28;19966;-76
2022/03/19 03:26:48;;;;;;;;;;;;;;;4.62;97.86;104305.75;5103345;28;19923;-77
2022/03/19 03:29:14;;;;;;;;;;;;;;;4.59;97.85;104308.84;5104112;28;19926;-76
2022/03/19 03:31:39;;;;;;;;;;;;;;;4.59;98.35;104303.75;5103977;27;19973;-76
2022/03/19 03:34:05;;;;;;;;;;;;;;;4.58;98.27;104307.94;5102701;28;19932;-76
2022/03/19 03:36:30;;;;;;;;;;;;;;;4.53;98.61;104306.53;5105962;28;20202;-77
2022/03/19 03:38:56;;;;;;;;;;;;;;;4.54;97.97;104304.91;5104433;28;20002;-77
2022/03/19 03:41:21;;;;;;;;;;;;;;;4.50;98.60;104301.13;5107637;28;19927;-77
2022/03/19 03:43:46;;;;;;;;;;;;;;;4.55;98.04;104302.53;5102589;28;19928;-76
2022/03/19 03:46:14;;;;;;;;;;;;;;;4.55;98.58;104301.59;5104302;28;19945;-77
2022/03/19 03:48:40;;;;;;;;;;;;;;;4.55;98.58;104304.16;5098264;28;19920;-77
2022/03/19 03:51:06;;;;;;;;;;;;;;;4.53;98.13;104301.44;5106906;28;20006;-77
2022/03/19 03:53:33;;;;;;;;;;;;;;;4.54;98.08;104298.16;5108891;28;20401;-79
2022/03/19 03:55:58;;;;;;;;;;;;;;;4.51;98.42;104300.38;5104204;28;19920;-77
2022/03/19 03:58:24;;;;;;;;;;;;;;;4.50;98.61;104298.59;5109611;27;19920;-74
2022/03/19 04:00:50;;;;;;;;;;;;;;;4.48;98.89;104297.50;5118365;27;19950;-76
2022/03/19 04:03:15;;;;;;;;;;;;;;;4.48;98.83;104297.50;5125902;27;19924;-76
2022/03/19 04:05:41;;;;;;;;;;;;;;;4.47;98.80;104292.25;5110427;28;19984;-77
2022/03/19 04:08:06;;;;;;;;;;;;;;;4.47;99.05;104284.59;5107126;27;19920;-77
2022/03/19 04:10:32;;;;;;;;;;;;;;;4.47;98.25;104292.25;5108901;28;19923;-78
2022/03/19 04:12:58;;;;;;;;;;;;;;;4.44;99.32;104285.19;5112064;27;19924;-77
2022/03/19 04:15:23;;;;;;;;;;;;;;;4.46;99.54;104280.25;5109916;27;19924;-77
2022/03/19 04:17:49;;;;;;;;;;;;;;;4.44;98.41;104279.19;5107251;27;19939;-77
2022/03/19 04:20:15;;;;;;;;;;;;;;;4.45;98.15;104292.09;5104493;28;20358;-77
2022/03/19 04:22:41;;;;;;;;;;;;;;;4.41;98.38;104281.38;5106608;28;20446;-77
2022/03/19 04:25:25;;;;;;;;;;;;;;;4.41;99.52;104281.38;5099187;28;19943;-78
2022/03/19 04:27:53;;;;;;;;;;;;;;;4.42;98.90;104289.19;5105397;28;20057;-79
2022/03/19 04:30:19;;;;;;;;;;;;;;;4.43;98.21;104279.91;5106009;28;20437;-77
2022/03/19 04:32:44;;;;;;;;;;;;;;;4.49;99.18;104280.56;5105195;28;19920;-78
2022/03/19 04:37:55;;;;;;;;;;;;;;;4.47;98.40;104279.50;5106043;28;19966;-76
2022/03/19 04:40:21;;;;;;;;;;;;;;;4.44;98.38;104271.53;5105438;28;19915;-78
2022/03/19 04:42:46;;;;;;;;;;;;;;;4.45;98.42;104275.91;5104272;28;20393;-77
2022/03/19 04:45:11;;;;;;;;;;;;;;;4.45;99.04;104281.00;5106880;28;19927;-78
2022/03/19 04:47:36;;;;;;;;;;;;;;;4.44;98.53;104262.25;5105723;28;20406;-77
2022/03/19 04:50:04;;;;;;;;;;;;;;;4.46;98.11;104265.84;5108382;28;20014;-78
2022/03/19 04:52:30;;;;;;;;;;;;;;;4.42;97.69;104267.91;5106562;28;19973;-79
2022/03/19 04:54:57;;;;;;;;;;;;;;;4.41;98.32;104266.09;5105641;28;19923;-76
2022/03/19 04:57:22;;;;;;;;;;;;;;;4.42;98.18;104267.91;5106708;28;19924;-76
2022/03/19 04:59:48;;;;;;;;;;;;;;;4.42;98.54;104266.25;5104164;28;20585;-77
2022/03/19 05:02:13;;;;;;;;;;;;;;;4.43;98.59;104263.00;5106521;28;20020;-76
2022/03/19 05:04:38;;;;;;;;;;;;;;;4.46;97.43;104277.69;5104076;28;20347;-75
2022/03/19 05:07:03;;;;;;;;;;;;;;;4.40;97.12;104275.41;5107568;28;20038;-77
2022/03/19 05:12:27;;;;;;;;;;;;;;;4.24;99.30;104275.38;5105530;28;19939;-78
2022/03/19 05:14:52;;;;;;;;;;;;;;;4.28;98.03;104271.53;5106360;28;19919;-77
2022/03/19 05:17:18;;;;;;;;;;;;;;;4.28;98.16;104272.44;5105009;28;20283;-78
2022/03/19 05:19:43;;;;;;;;;;;;;;;4.25;98.64;104276.31;5103580;28;19928;-77
2022/03/19 05:22:08;;;;;;;;;;;;;;;4.22;98.49;104276.84;5106997;27;19931;-76
2022/03/19 05:24:34;;;;;;;;;;;;;;;4.22;98.52;104269.22;5106752;27;20366;-76
2022/03/19 05:26:59;;;;;;;;;;;;;;;4.16;99.24;104281.28;5111019;27;19927;-78
2022/03/19 05:29:24;;;;;;;;;;;;;;;4.17;98.43;104278.00;5106827;28;19927;-76
2022/03/19 05:31:49;;;;;;;;;;;;;;;4.13;99.04;104280.97;5107108;28;19927;-78
2022/03/19 05:34:30;;;;;;;;;;;;;;;4.08;99.47;104287.22;5107756;28;19974;-77
2022/03/19 05:36:56;;;;;;;;;;;;;;;4.07;99.21;104281.97;5104614;28;20433;-77
2022/03/19 05:39:21;;;;;;;;;;;;;;;4.04;100.00;104287.59;5106818;27;19984;-78
2022/03/19 05:41:47;;;;;;;;;;;;;;;4.07;100.00;104285.41;5103855;28;20314;-78
2022/03/19 05:44:12;;;;;;;;;;;;;;;4.06;99.48;104291.22;5101675;28;20438;-77
2022/03/19 05:46:37;;;;;;;;;;;;;;;4.03;100.00;104291.78;5104554;27;19970;-77
2022/03/19 05:49:03;;;;;;;;;;;;;;;4.01;99.89;104294.91;5106828;28;20355;-77
2022/03/19 05:51:28;;;;;;;;;;;;;;;4.00;99.80;104291.47;5107217;27;19930;-77
2022/03/19 05:53:53;;;;;;;;;;;;;;;3.99;99.75;104289.63;5106056;27;20350;-77
2022/03/19 05:56:19;;;;;;;;;;;;;;;4.03;100.00;104295.97;5105686;27;19916;-76
2022/03/19 05:58:44;;;;;;;;;;;;;;;4.09;100.00;104294.09;5104110;27;19926;-76
2022/03/19 06:01:09;;;;;;;;;;;;;;;4.12;100.00;104296.97;5104763;28;19945;-75
2022/03/19 06:03:34;;;;;;;;;;;;;;;4.30;99.95;104298.06;5105660;28;19967;-76
2022/03/19 06:06:00;;;;;;;;;;;;;;;4.54;98.19;104307.44;5105310;28;19969;-76
2022/03/19 06:08:25;;;;;;;;;;;;;;;4.68;97.58;104298.75;5103729;28;20378;-76
2022/03/19 06:10:50;;;;;;;;;;;;;;;4.84;96.05;104303.06;5106501;28;19923;-78
2022/03/19 06:13:15;;;;;;;;;;;;;;;4.95;95.36;104300.75;5102547;28;19928;-76
2022/03/19 06:15:40;;;;;;;;;;;;;;;5.04;94.76;104300.09;5107561;27;20361;-76
2022/03/19 06:18:06;;;;;;;;;;;;;;;5.00;94.00;104299.59;5103153;28;19923;-76
2022/03/19 06:20:31;;;;;;;;;;;;;;;4.94;94.38;104302.41;5105144;28;19930;-76
2022/03/19 06:22:57;;;;;;;;;;;;;;;5.04;94.01;104302.66;5090098;28;19927;-76
2022/03/19 06:25:22;;;;;;;;;;;;;;;5.12;93.92;104303.44;5104698;27;20014;-76
2022/03/19 06:27:48;;;;;;;;;;;;;;;5.50;93.47;104306.53;5104026;27;20005;-76
2022/03/19 06:30:13;;;;;;;;;;;;;;;5.98;89.77;104312.34;5103735;27;19920;-76
2022/03/19 06:32:41;;;;;;;;;;;;;;;6.31;88.14;104300.41;5102753;28;19960;-76
2022/03/19 06:35:06;;;;;;;;;;;;;;;6.84;85.64;104298.78;5106015;28;19926;-76
2022/03/19 06:37:32;;;;;;;;;;;;;;;7.35;82.96;104302.94;5102430;28;19924;-77
2022/03/19 06:40:00;;;;;;;;;;;;;;;7.88;79.34;104306.22;5112981;28;20008;-77
2022/03/19 06:42:25;;;;;;;;;;;;;;;8.31;78.53;104304.34;5109321;28;19931;-77
2022/03/19 06:44:50;;;;;;;;;;;;;;;8.81;75.48;104304.59;5105916;28;19921;-76
2022/03/19 06:47:16;;;;;;;;;;;;;;;9.29;72.31;104302.94;5106757;28;19938;-77
2022/03/19 06:49:41;;;;;;;;;;;;;;;9.74;70.80;104302.56;5103399;28;19928;-77
2022/03/19 06:52:07;;;;;;;;;;;;;;;10.11;73.30;104296.31;5106214;28;19963;-77
2022/03/19 06:54:33;;;;;;;;;;;;;;;10.74;66.45;104299.94;5100405;28;19924;-76
2022/03/19 06:56:58;;;;;;;;;;;;;;;11.22;63.58;104294.38;5100189;28;20363;-74
2022/03/19 06:59:23;;;;;;;;;;;;;;;11.45;63.07;104296.19;5100741;28;20028;-76
2022/03/19 07:01:49;;;;;;;;;;;;;;;11.82;65.55;104287.09;5105457;28;19927;-76
2022/03/19 07:04:14;;;;;;;;;;;;;;;12.29;59.77;104288.94;5106220;28;19920;-76
2022/03/19 07:06:39;;;;;;;;;;;;;;;12.39;58.56;104285.38;5101718;28;19968;-77
2022/03/19 07:09:05;;;;;;;;;;;;;;;12.66;57.94;104290.00;5103079;28;19924;-77
2022/03/19 07:11:31;;;;;;;;;;;;;;;13.05;60.35;104283.38;5103863;28;20405;-77
2022/03/19 07:13:57;;;;;;;;;;;;;;;13.92;54.49;104284.41;5105684;28;19967;-78
2022/03/19 07:16:22;;;;;;;;;;;;;;;14.11;53.08;104283.97;5105146;28;19951;-76
2022/03/19 07:18:47;;;;;;;;;;;;;;;13.76;52.97;104287.59;5106185;28;20018;-78
2022/03/19 07:21:12;;;;;;;;;;;;;;;13.72;53.91;104284.72;5107108;28;19923;-77
2022/03/19 07:23:38;;;;;;;;;;;;;;;14.07;54.40;104287.13;5106168;28;20346;-77
2022/03/19 07:26:11;;;;;;;;;;;;;;;14.48;52.35;104290.84;5109898;28;19920;-78
2022/03/19 07:28:36;;;;;;;;;;;;;;;14.74;50.36;104291.66;5101757;28;19924;-77
2022/03/19 07:31:01;;;;;;;;;;;;;;;15.06;51.28;104285.09;5107404;28;19985;-77
2022/03/19 07:33:28;;;;;;;;;;;;;;;15.15;49.35;104289.16;5105675;28;19927;-77
2022/03/19 07:35:53;;;;;;;;;;;;;;;14.68;51.35;104278.31;5105023;28;20311;-78
2022/03/19 07:38:18;;;;;;;;;;;;;;;15.16;49.15;104275.38;5099079;27;19946;-76
2022/03/19 07:43:28;;;;;;;;;;;;;;;16.23;45.04;104282.00;5101713;28;19934;-77
2022/03/19 07:45:54;;;;;;;;;;;;;;;15.90;46.04;104280.00;5103314;28;19923;-77
2022/03/19 07:48:20;;;;;;;;;;;;;;;16.14;46.14;104267.56;5102711;27;20378;-77
2022/03/19 07:50:45;;;;;;;;;;;;;;;16.30;45.35;104278.06;5099884;28;19916;-77
2022/03/19 07:53:10;;;;;;;;;;;;;;;16.21;45.15;104274.94;5103703;28;19989;-77
2022/03/19 07:55:36;;;;;;;;;;;;;;;15.70;46.23;104273.56;5099595;28;19919;-77
2022/03/19 07:58:01;;;;;;;;;;;;;;;15.78;45.55;104270.66;5102708;28;19927;-76
2022/03/19 08:00:26;;;;;;;;;;;;;;;15.61;45.92;104265.22;5103062;28;20346;-77
2022/03/19 08:02:52;;;;;;;;;;;;;;;15.89;44.68;104258.31;5097258;28;20377;-77
2022/03/19 08:05:17;;;;;;;;;;;;;;;16.05;44.98;104270.53;5102535;28;19965;-79
2022/03/19 08:07:43;;;;;;;;;;;;;;;16.35;44.97;104264.53;5102492;28;20002;-77
2022/03/19 08:10:09;;;;;;;;;;;;;;;16.66;43.15;104260.22;5101330;28;19937;-76
2022/03/19 08:12:37;;;;;;;;;;;;;;;17.01;42.09;104259.63;5100461;28;19930;-78
2022/03/19 08:15:03;;;;;;;;;;;;;;;17.25;41.64;104263.56;5099575;28;19919;-77
2022/03/19 08:17:28;;;;;;;;;;;;;;;16.73;41.97;104271.06;5101681;27;20436;-78
2022/03/19 08:19:59;;;;;;;;;;;;;;;16.20;43.28;104276.63;5101118;28;21689;-79
2022/03/19 08:22:25;;;;;;;;;;;;;;;16.22;42.76;104276.72;5100420;28;19978;-78
2022/03/19 08:24:50;;;;;;;;;;;;;;;15.59;43.50;104275.47;5100387;28;19955;-78
2022/03/19 08:27:16;;;;;;;;;;;;;;;15.52;44.37;104281.09;5100013;28;19926;-80
2022/03/19 08:29:41;;;;;;;;;;;;;;;15.85;43.58;104277.13;5102633;28;19926;-76
2022/03/19 08:32:08;;;;;;;;;;;;;;;16.57;42.18;104274.47;5100567;28;20298;-77
2022/03/19 08:34:33;;;;;;;;;;;;;;;17.06;40.88;104279.88;5102426;28;20003;-78
2022/03/19 08:36:59;;;;;;;;;;;;;;;17.29;40.89;104268.16;5100939;28;20909;-76
2022/03/19 08:42:08;;;;;;;;;;;;;;;17.92;37.93;104271.50;5099854;28;19930;-79
2022/03/19 08:44:33;;;;;;;;;;;;;;;17.48;38.70;104266.53;5099392;28;19920;-77
2022/03/19 08:46:58;;;;;;;;;;;;;;;16.96;39.79;104274.06;5099733;28;20397;-79
2022/03/19 08:49:24;;;;;;;;;;;;;;;16.88;40.10;104269.34;5096446;28;20039;-76
2022/03/19 08:51:49;;;;;;;;;;;;;;;17.59;38.95;104268.88;5084438;28;19920;-77
2022/03/19 08:54:16;;;;;;;;;;;;;;;18.14;37.29;104260.47;5099368;28;19931;-77
2022/03/19 08:56:42;;;;;;;;;;;;;;;18.48;37.31;104260.44;5097343;28;20260;-79
2022/03/19 08:59:07;;;;;;;;;;;;;;;19.02;36.43;104263.97;5082243;28;19920;-78
2022/03/19 09:01:33;;;;;;;;;;;;;;;18.52;36.40;104266.72;5096590;28;19962;-78
2022/03/19 09:03:58;;;;;;;;;;;;;;;18.29;37.47;104262.97;5097595;28;19934;-78
2022/03/19 09:06:23;;;;;;;;;;;;;;;18.43;36.93;104261.91;5111810;27;20412;-76
2022/03/19 09:08:52;;;;;;;;;;;;;;;18.74;36.71;104259.13;5101000;28;19974;-78
2022/03/19 09:11:21;;;;;;;;;;;;;;;18.63;36.28;104265.53;5094783;28;19923;-77
2022/03/19 09:13:47;;;;;;;;;;;;;;;17.43;37.94;104268.88;5097793;27;19991;-78
2022/03/19 09:16:13;;;;;;;;;;;;;;;17.34;38.45;104253.66;5101486;27;20006;-77
2022/03/19 09:18:38;;;;;;;;;;;;;;;17.33;38.27;104257.06;5100595;28;20118;-79
2022/03/19 09:21:03;;;;;;;;;;;;;;;17.82;37.98;104249.28;5097268;28;20030;-78
2022/03/19 09:23:29;;;;;;;;;;;;;;;17.91;37.38;104274.94;5105823;28;19920;-75
2022/03/19 09:25:54;;;;;;;;;;;;;;;17.79;37.32;104245.66;5107722;28;19973;-76
2022/03/19 09:28:20;;;;;;;;;;;;;;;18.08;36.41;104249.72;5101375;28;20431;-77
2022/03/19 09:30:45;;;;;;;;;;;;;;;18.43;35.62;104243.69;5100305;28;19950;-78
2022/03/19 09:33:11;;;;;;;;;;;;;;;18.27;36.58;104246.38;5097252;28;19950;-78
2022/03/19 09:35:36;;;;;;;;;;;;;;;19.00;35.26;104242.13;5095321;28;20018;-78
2022/03/19 09:38:02;;;;;;;;;;;;;;;19.93;33.24;104258.53;5099641;28;19930;-80
2022/03/19 09:40:27;;;;;;;;;;;;;;;19.68;34.44;104243.50;5079601;28;19991;-78
2022/03/19 09:42:53;;;;;;;;;;;;;;;19.94;32.30;104240.28;5095263;28;19932;-77
2022/03/19 09:45:19;;;;;;;;;;;;;;;19.71;32.89;104226.25;5097755;28;20378;-79
2022/03/19 09:47:45;;;;;;;;;;;;;;;19.29;33.87;104236.56;5098473;28;19992;-77
2022/03/19 09:50:10;;;;;;;;;;;;;;;18.96;33.49;104220.22;5099630;28;19915;-78
2022/03/19 09:52:36;;;;;;;;;;;;;;;19.25;33.85;104224.19;5100021;28;19928;-78
2022/03/19 09:55:03;;;;;;;;;;;;;;;20.15;30.60;104232.50;5102565;28;19915;-78
2022/03/19 09:57:28;;;;;;;;;;;;;;;20.10;31.64;104226.19;5099303;28;19948;-78
2022/03/19 09:59:54;;;;;;;;;;;;;;;20.46;30.78;104215.50;5098042;28;19963;-75
2022/03/19 10:02:19;;;;;;;;;;;;;;;20.16;29.94;104217.69;5095129;28;19924;-76
2022/03/19 10:04:44;;;;;;;;;;;;;;;19.55;31.12;104208.09;5092482;28;19928;-76
2022/03/19 10:09:56;;;;;;;;;;;;;;;21.04;29.08;104207.28;5099268;28;20373;-78
2022/03/19 10:12:30;;;;;;;;;;;;;;;20.41;28.55;104202.19;5098204;28;19969;-76
2022/03/19 10:14:56;;;;;;;;;;;;;;;20.39;29.09;104203.88;5098123;28;19947;-78
2022/03/19 10:17:35;;;;;;;;;;;;;;;19.88;29.58;104185.19;5098495;28;20019;-78
2022/03/19 10:20:03;;;;;;;;;;;;;;;20.49;29.99;104187.72;5100081;28;19926;-80
2022/03/19 10:22:29;;;;;;;;;;;;;;;21.34;27.17;104177.03;5096875;28;19958;-81
2022/03/19 10:24:59;;;;;;;;;;;;;;;21.05;27.42;104178.56;5098814;28;19915;-78
2022/03/19 10:27:24;;;;;;;;;;;;;;;20.87;26.11;104175.28;5100030;28;19916;-82
2022/03/19 10:30:09;;;;;;;;;;;;;;;20.23;28.50;104173.59;5096613;28;19934;-80
2022/03/19 10:32:34;;;;;;;;;;;;;;;20.18;27.02;104169.00;5100449;28;19916;-78
2022/03/19 10:35:01;;;;;;;;;;;;;;;20.50;27.71;104152.91;5104812;28;19957;-80
2022/03/19 10:37:37;;;;;;;;;;;;;;;20.88;26.84;104162.25;5107251;28;19927;-81
2022/03/19 10:40:04;;;;;;;;;;;;;;;20.26;26.43;104164.97;5104529;28;20378;-77
2022/03/19 10:42:35;;;;;;;;;;;;;;;19.92;25.66;104171.44;5106720;28;19920;-76
2022/03/19 10:45:00;;;;;;;;;;;;;;;19.21;26.88;104159.63;5106189;28;19928;-76
2022/03/19 10:47:25;;;;;;;;;;;;;;;19.35;27.28;104147.19;5103104;28;19922;-75
2022/03/19 10:49:50;;;;;;;;;;;;;;;19.42;26.24;104133.59;5105102;28;19928;-77
2022/03/19 10:52:17;;;;;;;;;;;;;;;19.95;27.56;104128.88;5107567;28;20255;-76
2022/03/19 10:54:44;;;;;;;;;;;;;;;21.52;24.89;104136.63;5103360;28;19934;-76
2022/03/19 10:57:09;;;;;;;;;;;;;;;21.04;25.25;104129.66;5106333;28;19920;-77
2022/03/19 10:59:34;;;;;;;;;;;;;;;20.18;26.13;104121.97;5087112;28;19973;-77
2022/03/19 11:02:03;;;;;;;;;;;;;;;20.27;25.81;104131.09;5105439;28;20401;-78
2022/03/19 11:04:30;;;;;;;;;;;;;;;20.01;24.45;104123.91;5109337;27;19968;-78
2022/03/19 11:06:57;;;;;;;;;;;;;;;19.63;24.52;104123.22;5102233;28;19915;-79
2022/03/19 11:09:26;;;;;;;;;;;;;;;20.23;24.05;104105.66;5104466;28;20392;-78
2022/03/19 11:11:55;;;;;;;;;;;;;;;19.73;22.54;104108.84;5104352;28;20316;-78
2022/03/19 11:14:24;;;;;;;;;;;;;;;19.22;23.28;104098.78;5106157;28;20346;-76
2022/03/19 11:19:43;;;;;;;;;;;;;;;19.86;22.73;104091.94;5104012;28;20011;-78
2022/03/19 11:22:08;;;;;;;;;;;;;;;20.29;22.43;104084.97;5103423;28;19943;-80
2022/03/19 11:24:38;;;;;;;;;;;;;;;19.64;22.72;104085.81;5106754;28;20299;-78
2022/03/19 11:27:04;;;;;;;;;;;;;;;19.33;22.77;104099.28;5103075;28;19924;-80
2022/03/19 11:29:30;;;;;;;;;;;;;;;19.91;22.28;104070.41;5105804;28;19930;-78
2022/03/19 11:31:58;;;;;;;;;;;;;;;20.15;21.10;104067.00;5103530;28;19919;-78
2022/03/19 11:34:24;;;;;;;;;;;;;;;20.35;21.25;104061.69;5107502;28;19959;-75
2022/03/19 11:36:56;;;;;;;;;;;;;;;20.02;20.90;104069.13;5104774;28;19970;-76
2022/03/19 11:39:21;;;;;;;;;;;;;;;18.93;21.35;104066.25;5099591;28;20537;-76
2022/03/19 11:41:49;;;;;;;;;;;;;;;19.29;21.41;104064.34;5101551;28;19972;-77
2022/03/19 11:44:16;;;;;;;;;;;;;;;19.61;20.79;104050.91;5105574;28;19922;-77
2022/03/19 11:46:54;;;;;;;;;;;;;;;19.68;20.37;104051.19;5107221;28;19924;-77
2022/03/19 11:49:39;;;;;;;;;;;;;;;19.82;20.94;104043.91;5105655;28;19992;-75
2022/03/19 11:52:05;;;;;;;;;;;;;;;19.33;20.47;104034.03;5105847;28;19920;-78
2022/03/19 11:54:50;;;;;;;;;;;;;;;19.39;20.92;104039.50;5101822;28;19922;-77
2022/03/19 11:57:16;;;;;;;;;;;;;;;19.67;20.76;104020.69;5111066;28;19923;-78
2022/03/19 11:59:45;;;;;;;;;;;;;;;20.00;19.52;104012.41;5105253;28;19930;-77
2022/03/19 12:02:12;;;;;;;;;;;;;;;19.93;17.79;104018.25;5113507;28;19931;-79
2022/03/19 12:04:45;;;;;;;;;;;;;;;19.83;18.06;104010.03;5125509;28;19920;-77
2022/03/19 12:07:10;;;;;;;;;;;;;;;20.28;17.92;104015.25;5121975;28;19919;-79
2022/03/19 12:09:38;;;;;;;;;;;;;;;19.81;17.93;104009.09;5094474;27;19942;-79
2022/03/19 12:12:16;;;;;;;;;;;;;;;18.94;18.67;104012.38;5112865;27;19912;-80
2022/03/19 12:14:44;;;;;;;;;;;;;;;18.95;18.56;103996.78;5109136;28;19916;-81
2022/03/19 12:17:16;;;;;;;;;;;;;;;19.48;18.80;103994.66;5110003;27;20379;-78
2022/03/19 12:19:49;;;;;;;;;;;;;;;19.79;18.17;103981.16;5112812;27;19915;-79
2022/03/19 12:22:24;;;;;;;;;;;;;;;19.18;17.34;103976.00;5108861;27;19923;-78
2022/03/19 12:24:52;;;;;;;;;;;;;;;19.06;18.19;103972.88;5107571;27;19916;-77
2022/03/19 12:27:18;;;;;;;;;;;;;;;19.50;18.68;103972.09;5111654;27;19960;-79
2022/03/19 12:29:44;;;;;;;;;;;;;;;20.25;18.16;103962.88;5105885;28;19916;-78
2022/03/19 12:32:09;;;;;;;;;;;;;;;20.56;18.31;103953.56;5107067;28;20366;-78
2022/03/19 12:34:34;;;;;;;;;;;;;;;20.48;18.02;103957.63;5104723;28;19951;-77
2022/03/19 12:37:01;;;;;;;;;;;;;;;20.42;17.29;103967.84;5108715;28;20002;-77
2022/03/19 12:39:26;;;;;;;;;;;;;;;19.69;18.68;103947.66;5109131;28;19928;-79
2022/03/19 12:41:52;;;;;;;;;;;;;;;19.08;17.99;103946.03;5107420;28;20354;-78
2022/03/19 12:44:18;;;;;;;;;;;;;;;18.87;18.46;103924.25;5107820;28;19930;-77
2022/03/19 12:46:43;;;;;;;;;;;;;;;18.59;17.75;103927.38;5102987;27;19965;-76
2022/03/19 12:49:10;;;;;;;;;;;;;;;18.36;18.10;103968.03;5105596;28;19922;-75
2022/03/19 12:51:36;;;;;;;;;;;;;;;18.18;18.14;103927.31;5105977;28;19980;-76
2022/03/19 12:54:15;;;;;;;;;;;;;;;18.56;18.39;103908.97;5104084;27;19959;-75
2022/03/19 12:56:40;;;;;;;;;;;;;;;19.14;18.33;103921.91;5104056;28;19927;-76
2022/03/19 12:59:05;;;;;;;;;;;;;;;18.73;19.17;103900.22;5102430;28;19939;-76